Kemps Landing, Louisiana
Current Conditions -  °F | °C
As of 1:15 PM on Saturday 25 Oct 2014 (Local Time) from KHEZ Reporting Station
Clear Clear  
Wind Chill: 75°   Ceiling: Unl
Heat Index: 75°   Visibility: 10mi
Dew Point: 57°   Wind: 5mph
Humidity: 53%   Direction: 320°NW
Pressure: 30.14"   Gusts: NA
Location:  31.3468°N, 91.6624°W
Report Text: KHEZ 251815Z AUTO 32004KT 10SM CLR 24/14 A3014 RMK AO1
Loading
Personal Weather Stations






























Interactive Weather Map New forecast layout! Learn more

10-Day Weather Forecast

Advertisements
Track Severe Weather on mobile